Neon, Kentucky
Current Conditions -  °F | °C
As of 10:15 AM on Monday 24 Nov 2014 (Local Time) from KLNP Reporting Station
Overcast Overcast  
Wind Chill: 61°   Ceiling: 3500
Heat Index: 61°   Visibility: 10mi
Dew Point: 45°   Wind: 26mph
Humidity: 55%   Direction: 210°SSW
Pressure: 29.69"   Gusts: 33mph
Location:  37.19°N, 82.71°W
Report Text: KLNP 241515Z AUTO 21023G29KT 10SM BKN035 BKN042 OVC050 16/07 A2969 RMK AO2
Loading
Personal Weather Stations






























Interactive Weather Map New forecast layout! Learn more

10-Day Weather Forecast

Advertisements
Track Severe Weather on mobile